Time;durP1;ratioP1;P1;durP2;ratioP2;P2;SDS_P1;SDS_P2;PMS_P1;PMS_P2;Temp;Humidity;BMP_temperature;BMP_pressure;BME280_temperature;BME280_humidity;BME280_pressure;Samples;Min_cycle;Max_cycle;Signal;HPM_P1;HPM_P2
2024/04/18 00:00:13;;;;;;;3.80;3.50;;;;;;;3.48;100.00;98548.28;6542226;21;20265;-89
2024/04/18 00:02:41;;;;;;;3.70;3.40;;;;;;;3.44;100.00;98551.53;6628609;21;20322;-87
2024/04/18 00:05:28;;;;;;;3.80;3.43;;;;;;;3.40;100.00;98553.75;6628150;21;20276;-88
2024/04/18 00:08:00;;;;;;;4.00;3.70;;;;;;;3.38;100.00;98555.78;6628714;21;20223;-88
2024/04/18 00:10:28;;;;;;;4.67;4.20;;;;;;;3.31;100.00;98543.56;6541809;21;20228;-86
2024/04/18 00:13:01;;;;;;;5.40;4.40;;;;;;;3.29;100.00;98546.38;6630545;21;20278;-86
2024/04/18 00:15:49;;;;;;;10.13;5.53;;;;;;;3.29;100.00;98542.91;6628716;21;20269;-86
2024/04/18 00:18:31;;;;;;;5.70;4.50;;;;;;;3.25;100.00;98549.63;6590356;21;20232;-84
2024/04/18 00:21:22;;;;;;;9.50;5.87;;;;;;;3.24;100.00;98540.06;6601244;21;20220;-87
2024/04/18 00:23:53;;;;;;;16.13;9.27;;;;;;;3.24;100.00;98537.41;6630757;21;20224;-84
2024/04/18 00:26:41;;;;;;;6.53;5.40;;;;;;;3.16;100.00;98538.41;6628976;21;20271;-86
2024/04/18 00:29:09;;;;;;;6.00;4.80;;;;;;;3.16;100.00;98542.88;6628995;21;20337;-87
2024/04/18 00:31:37;;;;;;;5.67;4.80;;;;;;;3.20;100.00;98541.47;6628518;21;20243;-86
2024/04/18 00:34:05;;;;;;;5.53;4.50;;;;;;;3.19;100.00;98539.84;6628581;21;20244;-85
2024/04/18 00:36:43;;;;;;;5.50;4.60;;;;;;;3.11;100.00;98538.19;6628434;21;20255;-86
2024/04/18 00:39:23;;;;;;;5.00;4.60;;;;;;;3.11;100.00;98535.53;6588995;21;20247;-85
2024/04/18 00:41:58;;;;;;;8.57;5.20;;;;;;;3.08;100.00;98542.03;6586589;21;20336;-85
2024/04/18 00:44:29;;;;;;;5.77;5.00;;;;;;;3.06;100.00;98544.06;6628534;21;20228;-86
2024/04/18 00:47:33;;;;;;;5.60;5.10;;;;;;;3.04;100.00;98547.91;6598304;21;20223;-84
2024/04/18 00:50:12;;;;;;;5.93;5.33;;;;;;;2.99;100.00;98548.50;6629037;21;20223;-86
2024/04/18 00:52:41;;;;;;;5.60;5.10;;;;;;;2.99;100.00;98551.16;6542182;21;20220;-85
2024/04/18 00:55:24;;;;;;;5.73;5.13;;;;;;;2.97;100.00;98558.50;6590345;21;20232;-85
2024/04/18 00:58:09;;;;;;;5.73;5.17;;;;;;;2.95;100.00;98559.69;6590861;21;20329;-87
2024/04/18 01:00:45;;;;;;;5.40;4.73;;;;;;;2.94;100.00;98552.78;6587580;21;20227;-85
2024/04/18 01:03:36;;;;;;;5.30;4.80;;;;;;;2.89;100.00;98553.34;6592054;21;20259;-85
2024/04/18 01:06:08;;;;;;;5.83;5.23;;;;;;;2.89;100.00;98549.91;6628808;21;20246;-84
2024/04/18 01:08:56;;;;;;;6.03;5.40;;;;;;;2.84;100.00;98542.56;6629962;21;20255;-85
2024/04/18 01:11:30;;;;;;;5.20;4.70;;;;;;;2.82;100.00;98556.97;6629528;21;20224;-84
2024/04/18 01:14:09;;;;;;;6.13;5.53;;;;;;;2.79;100.00;98554.75;6629576;21;20270;-86
2024/04/18 01:16:55;;;;;;;5.67;5.17;;;;;;;2.75;100.00;98558.78;6630260;21;20291;-87
2024/04/18 01:19:23;;;;;;;5.80;5.30;;;;;;;2.73;100.00;98563.44;6631069;21;20341;-87
2024/04/18 01:21:52;;;;;;;6.50;5.47;;;;;;;2.70;100.00;98567.31;6629490;21;20228;-86
2024/04/18 01:24:21;;;;;;;5.73;5.23;;;;;;;2.65;100.00;98559.97;6542349;21;20236;-84
2024/04/18 01:26:49;;;;;;;6.27;5.50;;;;;;;2.64;100.00;98560.16;6629323;21;20236;-86
2024/04/18 01:29:38;;;;;;;5.53;5.07;;;;;;;2.64;100.00;98557.50;6592968;21;20270;-84
2024/04/18 01:32:06;;;;;;;5.60;5.00;;;;;;;2.59;100.00;98566.03;6629368;21;20247;-86
2024/04/18 01:34:34;;;;;;;6.63;5.67;;;;;;;2.61;100.00;98566.63;6588713;21;20275;-85
2024/04/18 01:37:22;;;;;;;6.03;5.43;;;;;;;2.55;100.00;98559.50;6594031;21;20272;-83
2024/04/18 01:40:13;;;;;;;6.17;5.57;;;;;;;2.60;100.00;98564.19;6632069;21;20228;-86
2024/04/18 01:42:44;;;;;;;5.50;5.00;;;;;;;2.57;100.00;98568.03;6587313;21;20216;-85
2024/04/18 01:45:26;;;;;;;6.10;5.50;;;;;;;2.57;100.00;98565.38;6592087;21;20239;-83
2024/04/18 01:48:13;;;;;;;6.27;5.73;;;;;;;2.54;100.00;98567.59;6595025;21;20220;-85
2024/04/18 01:51:02;;;;;;;6.33;5.73;;;;;;;2.51;100.00;98566.19;6631491;21;20295;-87
2024/04/18 01:53:31;;;;;;;5.87;5.37;;;;;;;2.61;100.00;98571.13;6631568;21;20297;-82
2024/04/18 01:55:59;;;;;;;5.97;5.47;;;;;;;2.61;100.00;98568.47;6587206;21;20263;-85
2024/04/18 01:58:43;;;;;;;6.60;6.00;;;;;;;2.64;100.00;98573.38;6592490;21;20232;-86
2024/04/18 02:01:12;;;;;;;6.27;5.67;;;;;;;2.63;100.00;98575.19;6630696;21;20224;-83
2024/04/18 02:03:40;;;;;;;6.07;5.47;;;;;;;2.57;100.00;98570.66;6630673;21;20224;-87
2024/04/18 02:06:14;;;;;;;6.27;5.67;;;;;;;2.61;100.00;98571.13;6548349;21;20236;-84
2024/04/18 02:08:48;;;;;;;6.37;5.77;;;;;;;2.56;100.00;98574.34;6589880;21;20249;-86
2024/04/18 02:11:16;;;;;;;6.20;5.60;;;;;;;2.53;100.00;98576.53;6630892;21;20284;-84
2024/04/18 02:14:04;;;;;;;6.37;5.77;;;;;;;2.46;100.00;98575.69;6632510;21;20557;-85
2024/04/18 02:16:33;;;;;;;6.43;5.83;;;;;;;2.46;100.00;98578.34;6632755;21;20224;-86
2024/04/18 02:19:19;;;;;;;6.93;6.33;;;;;;;2.50;100.00;98579.59;6632770;21;20353;-85
2024/04/18 02:22:06;;;;;;;5.90;5.40;;;;;;;2.51;100.00;98579.41;6632319;21;20259;-86
2024/04/18 02:24:40;;;;;;;6.30;5.70;;;;;;;2.47;100.00;98579.97;6587227;21;20228;-86
2024/04/18 02:27:09;;;;;;;6.00;5.50;;;;;;;2.48;100.00;98584.22;6630734;21;20231;-86
2024/04/18 02:29:46;;;;;;;7.07;6.37;;;;;;;2.44;100.00;98583.81;6632332;21;20219;-85
2024/04/18 02:32:34;;;;;;;6.60;6.00;;;;;;;2.36;100.00;98583.16;6632429;21;20236;-87
2024/04/18 02:35:04;;;;;;;7.80;6.77;;;;;;;2.34;100.00;98582.50;6630651;21;20314;-85
2024/04/18 02:37:31;;;;;;;8.13;6.73;;;;;;;2.30;100.00;98579.44;6631066;21;20266;-85
2024/04/18 02:39:59;;;;;;;8.80;7.43;;;;;;;2.30;100.00;98583.91;6587045;21;20228;-85
2024/04/18 02:42:31;;;;;;;11.80;7.67;;;;;;;2.27;100.00;98584.31;6587706;21;20255;-86
2024/04/18 02:45:11;;;;;;;10.47;7.97;;;;;;;2.25;100.00;98578.38;6630511;21;20786;-86
2024/04/18 02:48:00;;;;;;;19.03;10.77;;;;;;;2.21;100.00;98580.59;6632853;21;20333;-87
2024/04/18 02:50:41;;;;;;;19.80;12.70;;;;;;;2.15;100.00;98584.81;6635869;21;20239;-87
2024/04/18 02:53:10;;;;;;;15.87;11.37;;;;;;;2.13;100.00;98583.38;6587460;21;20665;-85
2024/04/18 02:55:58;;;;;;;11.33;8.90;;;;;;;2.08;100.00;98578.66;6632610;21;20224;-87
2024/04/18 02:58:37;;;;;;;8.30;7.50;;;;;;;2.15;100.00;98582.16;6589634;21;20236;-86
2024/04/18 03:01:23;;;;;;;7.60;6.90;;;;;;;2.12;100.00;98569.34;6594516;21;20266;-86
2024/04/18 03:03:52;;;;;;;8.13;7.40;;;;;;;2.26;100.00;98580.84;6585962;21;20221;-84
2024/04/18 03:06:32;;;;;;;8.17;7.43;;;;;;;2.25;100.00;98579.19;6590126;21;20298;-86
2024/04/18 03:09:00;;;;;;;8.13;7.37;;;;;;;2.34;100.00;98578.03;6585967;21;20216;-85
2024/04/18 03:11:30;;;;;;;8.50;7.70;;;;;;;2.40;100.00;98577.28;6586959;21;20235;-85
2024/04/18 03:14:07;;;;;;;7.63;6.93;;;;;;;2.49;100.00;98575.31;6590267;21;20258;-86
2024/04/18 03:16:36;;;;;;;8.10;7.33;;;;;;;2.50;100.00;98577.75;6630738;21;20280;-87
2024/04/18 03:19:19;;;;;;;7.93;7.13;;;;;;;2.53;100.00;98579.19;6592130;21;20274;-86
2024/04/18 03:21:58;;;;;;;7.70;7.00;;;;;;;2.52;100.00;98575.72;6589974;21;20286;-86
2024/04/18 03:24:27;;;;;;;7.90;7.20;;;;;;;2.54;100.00;98586.13;6586065;21;20235;-84
2024/04/18 03:26:55;;;;;;;7.63;6.93;;;;;;;2.52;100.00;98582.88;6630581;21;20227;-84
2024/04/18 03:29:23;;;;;;;7.27;6.57;;;;;;;2.53;100.00;98582.66;6630241;21;20223;-86
2024/04/18 03:32:02;;;;;;;7.83;7.03;;;;;;;2.50;100.00;98590.16;6587684;21;20244;-85
2024/04/18 03:34:43;;;;;;;7.57;6.87;;;;;;;2.58;100.00;98590.00;6628123;21;20254;-86
2024/04/18 03:37:11;;;;;;;7.60;6.90;;;;;;;2.61;100.00;98587.78;6585769;21;20228;-85
2024/04/18 03:39:40;;;;;;;7.50;6.80;;;;;;;2.63;100.00;98587.59;6674818;21;20228;-85
2024/04/18 03:42:10;;;;;;;7.03;6.43;;;;;;;2.54;100.00;98589.59;6586936;21;20240;-85
2024/04/18 03:44:57;;;;;;;7.43;6.73;;;;;;;2.50;100.00;98593.63;6598349;21;20231;-88
2024/04/18 03:47:26;;;;;;;7.07;6.37;;;;;;;2.43;100.00;98600.69;6587319;21;20275;-85
2024/04/18 03:50:10;;;;;;;7.70;6.90;;;;;;;2.35;100.00;98608.75;6592271;21;20224;-85
2024/04/18 03:52:42;;;;;;;7.20;6.57;;;;;;;2.29;100.00;98604.22;6588022;21;20236;-87
2024/04/18 03:55:29;;;;;;;7.60;6.90;;;;;;;2.30;100.00;98611.16;6630120;21;20313;-85
2024/04/18 03:57:57;;;;;;;7.20;6.50;;;;;;;2.27;100.00;98608.09;6587062;21;20220;-87
2024/04/18 04:00:43;;;;;;;8.37;6.90;;;;;;;2.26;100.00;98615.19;6630393;21;20627;-86
2024/04/18 04:03:12;;;;;;;7.97;7.13;;;;;;;2.26;100.00;98617.00;6586568;21;20258;-87
2024/04/18 04:05:41;;;;;;;7.50;6.80;;;;;;;2.25;100.00;98620.66;6586379;21;20308;-85
2024/04/18 04:08:11;;;;;;;7.63;6.93;;;;;;;2.31;100.00;98625.19;6587640;21;20278;-86
2024/04/18 04:10:41;;;;;;;7.43;6.73;;;;;;;2.34;100.00;98635.38;6629996;21;20712;-87
2024/04/18 04:13:10;;;;;;;7.93;7.13;;;;;;;2.36;100.00;98638.66;6630254;21;20274;-84
2024/04/18 04:15:46;;;;;;;7.53;6.93;;;;;;;2.40;100.00;98640.72;6629943;21;20228;-86
2024/04/18 04:18:36;;;;;;;7.10;6.50;;;;;;;2.48;100.00;98645.03;6631733;21;20294;-86
2024/04/18 04:21:36;;;;;;;7.53;6.80;;;;;;;2.54;100.00;98647.75;6597885;21;20231;-86
2024/04/18 04:24:04;;;;;;;8.07;7.30;;;;;;;2.63;100.00;98641.31;6543372;21;20228;-85
2024/04/18 04:26:52;;;;;;;8.40;7.00;;;;;;;2.73;100.00;98651.56;6637151;21;20236;-85
2024/04/18 04:29:20;;;;;;;8.17;7.37;;;;;;;2.82;100.00;98646.91;6586179;21;20228;-86
2024/04/18 04:31:48;;;;;;;7.43;6.73;;;;;;;2.89;100.00;98642.50;6631374;21;20235;-87
2024/04/18 04:34:18;;;;;;;7.50;6.83;;;;;;;2.89;100.00;98643.28;6586287;21;20231;-86
2024/04/18 04:36:45;;;;;;;7.40;6.70;;;;;;;2.95;100.00;98650.47;6631378;21;20220;-84
2024/04/18 04:39:13;;;;;;;7.87;7.03;;;;;;;3.01;100.00;98665.56;6630020;21;20582;-87
2024/04/18 04:41:42;;;;;;;7.33;6.73;;;;;;;3.04;100.00;98659.88;6630301;21;20246;-87
2024/04/18 04:44:10;;;;;;;7.40;6.70;;;;;;;3.10;100.00;98671.53;6629292;21;20271;-84
2024/04/18 04:46:47;;;;;;;7.20;6.60;;;;;;;3.19;100.00;98667.69;6629628;21;20232;-85
2024/04/18 04:49:19;;;;;;;6.80;6.20;;;;;;;3.33;100.00;98677.34;6629967;21;20232;-86
2024/04/18 04:52:00;;;;;;;7.20;6.50;;;;;;;3.39;100.00;98681.03;6631560;21;20336;-85
2024/04/18 04:54:54;;;;;;;7.83;7.13;;;;;;;3.52;100.00;98689.03;6623640;21;20275;-85
2024/04/18 04:57:22;;;;;;;7.17;6.57;;;;;;;3.65;100.00;98691.75;6629510;21;20290;-86
2024/04/18 05:00:10;;;;;;;6.80;6.23;;;;;;;3.75;100.00;98689.53;6631560;21;20220;-83
2024/04/18 05:02:59;;;;;;;7.00;6.40;;;;;;;3.91;100.00;98694.50;6630003;21;20314;-84
2024/04/18 05:05:47;;;;;;;7.10;6.50;;;;;;;4.07;100.00;98706.56;6629626;21;20216;-85
2024/04/18 05:08:34;;;;;;;7.03;6.43;;;;;;;4.22;100.00;98695.78;6595080;21;20692;-86
2024/04/18 05:11:02;;;;;;;7.03;6.43;;;;;;;4.35;100.00;98695.78;6588223;21;20228;-85
2024/04/18 05:13:31;;;;;;;7.50;6.80;;;;;;;4.50;100.00;98696.41;6631729;21;20223;-86
2024/04/18 05:16:18;;;;;;;7.10;6.40;;;;;;;4.66;100.00;98698.69;6631983;21;20220;-84
2024/04/18 05:19:09;;;;;;;6.43;5.83;;;;;;;4.89;100.00;98695.63;6631562;21;20224;-84
2024/04/18 05:21:37;;;;;;;6.53;5.93;;;;;;;5.08;100.00;98693.94;6631756;21;20224;-87
2024/04/18 05:24:24;;;;;;;6.50;5.83;;;;;;;5.32;100.00;98690.59;6632265;21;20325;-86
2024/04/18 05:26:53;;;;;;;6.27;5.77;;;;;;;5.49;100.00;98697.13;6630126;21;20220;-86
2024/04/18 05:32:07;;;;;;;5.70;5.20;;;;;;;5.88;100.00;98701.47;6631006;21;20232;-87
2024/04/18 05:34:37;;;;;;;6.57;5.60;;;;;;;6.03;100.00;98703.84;6632785;21;20220;-84
2024/04/18 05:37:04;;;;;;;8.97;4.83;;;;;;;6.18;100.00;98702.56;6632081;21;20232;-87
2024/04/18 05:39:33;;;;;;;5.60;4.90;;;;;;;6.16;100.00;98704.59;6588825;21;20229;-84
2024/04/18 05:42:01;;;;;;;5.40;4.90;;;;;;;6.28;100.00;98703.94;6589655;21;20263;-88
2024/04/18 05:44:30;;;;;;;5.03;4.53;;;;;;;6.31;100.00;98706.97;6587314;21;20263;-86
2024/04/18 05:46:57;;;;;;;5.10;4.60;;;;;;;6.36;100.00;98707.13;6630959;21;20273;-86
2024/04/18 05:49:28;;;;;;;5.67;5.17;;;;;;;6.52;100.00;98706.63;6589887;21;20232;-85
2024/04/18 05:51:56;;;;;;;5.17;4.60;;;;;;;6.71;100.00;98704.84;6632160;21;20223;-85
2024/04/18 05:54:30;;;;;;;5.17;4.77;;;;;;;6.77;100.00;98711.13;6633062;21;20344;-87
2024/04/18 05:57:07;;;;;;;4.80;4.40;;;;;;;6.84;100.00;98711.91;6550080;21;20274;-87
2024/04/18 05:59:53;;;;;;;4.33;3.93;;;;;;;6.97;100.00;98709.94;6591877;21;20248;-87
2024/04/18 06:02:21;;;;;;;4.00;3.60;;;;;;;7.09;100.00;98716.16;6541213;21;20321;-85
2024/04/18 06:04:49;;;;;;;3.50;3.20;;;;;;;7.18;100.00;98714.06;6588988;21;20228;-85
2024/04/18 06:07:36;;;;;;;4.10;3.50;;;;;;;7.29;100.00;98723.97;6634102;21;20263;-87
2024/04/18 06:10:04;;;;;;;3.53;3.20;;;;;;;7.27;100.00;98722.59;6589276;21;20228;-84
2024/04/18 06:12:32;;;;;;;3.17;2.97;;;;;;;7.27;100.00;98715.41;6589305;21;20329;-85
2024/04/18 06:15:00;;;;;;;3.23;2.93;;;;;;;7.31;100.00;98711.25;6546413;21;20261;-85
2024/04/18 06:17:28;;;;;;;3.50;3.20;;;;;;;7.54;100.00;98718.59;6589019;21;20538;-86
2024/04/18 06:19:56;;;;;;;3.20;2.87;;;;;;;7.74;100.00;98713.03;6587714;21;20282;-85
2024/04/18 06:22:27;;;;;;;3.07;2.67;;;;;;;7.84;100.00;98729.31;6547636;21;20239;-84
2024/04/18 06:25:16;;;;;;;3.13;2.83;;;;;;;7.97;100.00;98724.66;6595712;21;20341;-85
2024/04/18 06:27:44;;;;;;;2.80;2.60;;;;;;;8.13;100.00;98725.06;6587877;21;20276;-85
2024/04/18 06:30:17;;;;;;;2.90;2.60;;;;;;;8.24;100.00;98734.97;6587961;21;20280;-85
2024/04/18 06:32:47;;;;;;;3.00;2.70;;;;;;;8.25;100.00;98736.59;6590309;21;20239;-88
2024/04/18 06:35:15;;;;;;;2.50;2.30;;;;;;;8.26;100.00;98731.03;6588293;21;20222;-87
2024/04/18 06:37:44;;;;;;;2.27;2.13;;;;;;;8.09;100.00;98724.69;6588479;21;20240;-87
2024/04/18 06:40:12;;;;;;;2.60;2.40;;;;;;;8.13;100.00;98730.38;6587978;21;20258;-86
2024/04/18 06:42:43;;;;;;;2.90;2.60;;;;;;;8.12;100.00;98731.44;6543256;21;20236;-84
2024/04/18 06:45:12;;;;;;;2.83;2.53;;;;;;;8.20;100.00;98733.81;6581658;21;20275;-86
2024/04/18 06:47:40;;;;;;;2.80;2.33;;;;;;;8.43;100.00;98730.44;6540886;21;20266;-86
2024/04/18 06:50:08;;;;;;;3.13;2.83;;;;;;;8.37;100.00;98740.16;6589357;21;20254;-84
2024/04/18 06:52:36;;;;;;;2.70;2.50;;;;;;;8.29;100.00;98735.09;6632283;21;20262;-84
2024/04/18 06:55:04;;;;;;;2.60;2.40;;;;;;;8.38;100.00;98731.94;6588621;21;20232;-83
2024/04/18 06:57:42;;;;;;;2.40;2.20;;;;;;;8.27;100.00;98732.66;6552422;21;20231;-84
2024/04/18 07:00:14;;;;;;;2.10;1.90;;;;;;;8.25;100.00;98749.94;6546883;21;20527;-83
2024/04/18 07:02:42;;;;;;;2.20;1.93;;;;;;;8.17;100.00;98736.91;6589070;21;20228;-81
2024/04/18 07:05:28;;;;;;;2.43;2.23;;;;;;;8.12;100.00;98740.25;6633072;21;20267;-83
2024/04/18 07:08:14;;;;;;;2.80;2.50;;;;;;;7.96;100.00;98735.53;6633075;21;20288;-86
2024/04/18 07:10:43;;;;;;;2.57;2.37;;;;;;;8.14;100.00;98740.03;6588624;21;20284;-84
2024/04/18 07:13:30;;;;;;;2.70;2.50;;;;;;;8.14;100.00;98751.53;6559245;21;20323;-85
2024/04/18 07:16:24;;;;;;;2.80;2.17;;;;;;;8.02;100.00;98741.84;6584347;21;20280;-85
2024/04/18 07:18:52;;;;;;;2.13;1.93;;;;;;;8.15;100.00;98749.66;6588857;21;20266;-83
2024/04/18 07:21:20;;;;;;;2.33;2.13;;;;;;;8.11;100.00;98753.81;6588784;21;20669;-87
2024/04/18 07:23:48;;;;;;;2.20;1.90;;;;;;;8.21;100.00;98754.91;6588843;21;20232;-82
2024/04/18 07:26:35;;;;;;;2.43;1.90;;;;;;;8.08;100.00;98740.91;6595600;21;20271;-84
2024/04/18 07:29:04;;;;;;;3.30;1.73;;;;;;;8.33;100.00;98753.16;6545403;21;20754;-85
2024/04/18 07:31:32;;;;;;;2.10;1.90;;;;;;;8.38;100.00;98753.28;6545031;21;20708;-85
2024/04/18 07:34:13;;;;;;;1.93;1.80;;;;;;;8.35;100.00;98756.38;6632744;21;20232;-81
2024/04/18 07:36:41;;;;;;;1.77;1.67;;;;;;;8.63;100.00;98758.44;6546161;21;20548;-86
2024/04/18 07:39:09;;;;;;;2.23;2.03;;;;;;;9.05;100.00;98756.56;6589364;21;20232;-84
2024/04/18 07:41:37;;;;;;;2.20;1.73;;;;;;;9.03;100.00;98757.84;6587003;21;20275;-81
2024/04/18 07:44:07;;;;;;;1.70;1.60;;;;;;;9.18;100.00;98764.38;6586788;21;20272;-82
2024/04/18 07:46:36;;;;;;;2.30;2.10;;;;;;;9.41;100.00;98765.44;6630485;21;20339;-81
2024/04/18 07:49:04;;;;;;;2.40;2.13;;;;;;;9.58;100.00;98758.31;6630361;21;20225;-80
2024/04/18 07:51:32;;;;;;;2.40;2.20;;;;;;;9.51;100.00;98768.34;6585374;21;20251;-81
2024/04/18 07:54:00;;;;;;;2.40;2.00;;;;;;;9.69;100.00;98773.56;6586688;21;20586;-80
2024/04/18 07:56:29;;;;;;;2.07;1.97;;;;;;;10.05;100.00;98761.72;6629667;21;20231;-84
2024/04/18 07:58:57;;;;;;;2.00;1.90;;;;;;;10.17;100.00;98772.44;6586277;21;20258;-81
2024/04/18 08:01:25;;;;;;;2.03;1.90;;;;;;;10.34;100.00;98766.09;6585801;21;20236;-81
2024/04/18 08:03:56;;;;;;;2.03;1.83;;;;;;;10.54;100.00;98773.69;6586774;21;20931;-81
2024/04/18 08:06:44;;;;;;;2.30;2.10;;;;;;;10.57;100.00;98781.25;6557356;21;20224;-80
2024/04/18 08:09:17;;;;;;;3.10;2.80;;;;;;;10.96;100.00;98768.81;6586391;21;20325;-82
2024/04/18 08:11:50;;;;;;;2.60;2.40;;;;;;;11.28;100.00;98775.22;6544978;21;20806;-81
2024/04/18 08:14:38;;;;;;;2.30;2.10;;;;;;;10.97;100.00;98775.78;6591372;21;20266;-82
2024/04/18 08:17:12;;;;;;;3.13;1.90;;;;;;;10.40;100.00;98761.66;6587174;21;20215;-80
2024/04/18 08:19:40;;;;;;;2.93;2.63;;;;;;;10.47;100.00;98762.31;6628202;21;20256;-81
2024/04/18 08:22:08;;;;;;;2.90;1.90;;;;;;;10.69;100.00;98767.78;6584519;21;20228;-80
2024/04/18 08:24:36;;;;;;;2.83;1.80;;;;;;;10.75;100.00;98767.63;6541396;21;20227;-80
2024/04/18 08:27:07;;;;;;;1.90;1.60;;;;;;;10.77;100.00;98765.53;6585976;21;20263;-80
2024/04/18 08:29:36;;;;;;;2.63;1.70;;;;;;;11.17;100.00;98765.41;6628034;21;20224;-81
2024/04/18 08:32:04;;;;;;;2.23;1.60;;;;;;;11.40;100.00;98778.63;6541363;21;20243;-81
2024/04/18 08:34:35;;;;;;;1.83;1.73;;;;;;;11.60;100.00;98780.00;6628024;21;20231;-82
2024/04/18 08:37:08;;;;;;;2.67;1.70;;;;;;;12.19;100.00;98781.88;6630418;21;20227;-80
2024/04/18 08:39:36;;;;;;;1.90;1.73;;;;;;;12.35;100.00;98777.50;6628232;21;20247;-85
2024/04/18 08:42:07;;;;;;;1.80;1.70;;;;;;;11.94;100.00;98784.25;6584602;21;20328;-82
2024/04/18 08:44:37;;;;;;;2.70;1.80;;;;;;;12.15;100.00;98774.56;6587437;21;20236;-82
2024/04/18 08:47:06;;;;;;;1.90;1.80;;;;;;;12.19;100.00;98781.88;6542242;21;20228;-81
2024/04/18 08:49:39;;;;;;;2.10;1.70;;;;;;;12.18;100.00;98780.25;6584988;21;20227;-82
2024/04/18 08:52:09;;;;;;;3.40;2.10;;;;;;;12.42;95.91;98786.16;6585549;21;20258;-81
2024/04/18 08:54:37;;;;;;;1.70;1.60;;;;;;;12.68;96.12;98779.22;6584597;21;20232;-81
2024/04/18 08:57:07;;;;;;;1.83;1.73;;;;;;;12.45;93.99;98776.81;6584321;21;20320;-81
2024/04/18 08:59:35;;;;;;;1.70;1.60;;;;;;;12.34;95.29;98784.75;6585494;21;20271;-81
2024/04/18 09:02:03;;;;;;;1.70;1.60;;;;;;;12.46;91.90;98773.06;6582883;21;20235;-81
2024/04/18 09:04:30;;;;;;;2.10;1.60;;;;;;;12.46;94.95;98786.50;6541012;21;20262;-82
2024/04/18 09:06:59;;;;;;;2.40;1.60;;;;;;;12.69;93.61;98788.91;6583505;21;20232;-81
2024/04/18 09:09:27;;;;;;;2.47;1.60;;;;;;;12.56;93.34;98786.59;6628464;21;20232;-82
2024/04/18 09:11:56;;;;;;;2.63;1.70;;;;;;;12.67;94.95;98789.16;6540942;21;20236;-83
2024/04/18 09:14:25;;;;;;;2.37;2.00;;;;;;;12.41;91.80;98787.22;6584121;21;20228;-82
2024/04/18 09:16:53;;;;;;;1.67;1.50;;;;;;;12.28;90.84;98791.13;6583828;21;20228;-81
2024/04/18 09:19:21;;;;;;;1.77;1.60;;;;;;;12.88;90.52;98794.72;6629175;21;20283;-83
2024/04/18 09:21:49;;;;;;;2.23;1.60;;;;;;;13.04;91.10;98793.78;6583681;21;20317;-81
2024/04/18 09:24:17;;;;;;;2.20;1.50;;;;;;;13.05;88.28;98795.41;6583924;21;20224;-82
2024/04/18 09:26:46;;;;;;;1.83;1.63;;;;;;;12.94;85.88;98801.75;6584100;21;20317;-82
2024/04/18 09:29:17;;;;;;;3.20;1.80;;;;;;;12.72;86.97;98799.13;6585200;21;21115;-82
2024/04/18 09:31:45;;;;;;;1.90;1.70;;;;;;;12.69;85.17;98794.28;6627164;21;20244;-81
2024/04/18 09:34:14;;;;;;;2.33;1.60;;;;;;;12.41;86.34;98792.59;6540460;21;20228;-82
2024/04/18 09:36:42;;;;;;;1.67;1.57;;;;;;;12.82;85.71;98795.75;6628199;21;20227;-82
2024/04/18 09:39:13;;;;;;;1.60;1.50;;;;;;;13.08;84.50;98797.59;6584206;21;20337;-85
2024/04/18 09:41:49;;;;;;;1.93;1.60;;;;;;;13.13;80.91;98797.66;6543830;21;20258;-84
2024/04/18 09:44:24;;;;;;;1.70;1.50;;;;;;;12.97;81.38;98793.19;6540955;21;20267;-81
2024/04/18 09:46:59;;;;;;;2.00;1.77;;;;;;;12.63;81.15;98784.53;6587283;21;20240;-81
2024/04/18 09:49:27;;;;;;;1.37;1.27;;;;;;;13.07;81.69;98786.00;6584256;21;20221;-82
2024/04/18 09:51:55;;;;;;;1.87;1.77;;;;;;;12.71;84.84;98792.13;6584339;21;20264;-82
2024/04/18 09:54:25;;;;;;;1.90;1.80;;;;;;;12.43;83.10;98793.16;6628879;21;20271;-81
2024/04/18 09:56:53;;;;;;;2.00;1.70;;;;;;;12.24;84.51;98795.38;6629766;21;20231;-80
2024/04/18 09:59:22;;;;;;;1.50;1.40;;;;;;;12.25;84.76;98791.63;6629335;21;20693;-82
2024/04/18 10:01:50;;;;;;;2.17;1.87;;;;;;;11.48;83.98;98796.16;6585879;21;20236;-78
2024/04/18 10:04:18;;;;;;;2.80;1.70;;;;;;;11.81;83.39;98789.97;6585455;21;20271;-79
2024/04/18 10:06:48;;;;;;;1.70;1.60;;;;;;;11.52;81.98;98791.97;6629090;21;20323;-80
2024/04/18 10:09:18;;;;;;;1.57;1.47;;;;;;;11.58;84.07;98807.06;6629024;21;20216;-80
2024/04/18 10:11:45;;;;;;;1.90;1.50;;;;;;;11.65;82.79;98806.91;6628967;21;20243;-79
2024/04/18 10:14:15;;;;;;;2.40;1.60;;;;;;;11.83;82.67;98801.28;6585742;21;20742;-80
2024/04/18 10:16:49;;;;;;;2.50;1.70;;;;;;;12.03;83.50;98798.06;6585748;21;20262;-80
2024/04/18 10:19:23;;;;;;;2.13;1.70;;;;;;;11.95;84.55;98798.47;6628789;21;20708;-81
2024/04/18 10:21:58;;;;;;;1.70;1.60;;;;;;;11.84;83.49;98790.31;6628789;21;20224;-80
2024/04/18 10:24:50;;;;;;;1.80;1.70;;;;;;;12.07;81.95;98797.31;6629142;21;20224;-81
2024/04/18 10:27:20;;;;;;;2.40;2.00;;;;;;;12.00;78.90;98793.16;6630159;21;20258;-79
2024/04/18 10:29:55;;;;;;;2.10;1.50;;;;;;;11.96;78.71;98784.81;6630368;21;20278;-81
2024/04/18 10:32:36;;;;;;;3.50;1.80;;;;;;;12.16;78.50;98795.00;6585957;21;20283;-79
2024/04/18 10:35:11;;;;;;;1.97;1.77;;;;;;;12.03;78.60;98800.75;6586275;21;20295;-80
2024/04/18 10:37:49;;;;;;;1.70;1.60;;;;;;;12.05;75.65;98794.06;6588390;21;20236;-80
2024/04/18 10:40:17;;;;;;;2.33;1.77;;;;;;;12.44;77.42;98792.13;6585616;21;20236;-80
2024/04/18 10:42:45;;;;;;;2.17;1.70;;;;;;;12.74;73.89;98794.28;6584808;21;20236;-82
2024/04/18 10:45:15;;;;;;;1.57;1.47;;;;;;;12.55;71.25;98785.78;6585087;21;20321;-83
2024/04/18 10:47:48;;;;;;;2.07;1.40;;;;;;;12.96;72.97;98787.00;6542326;21;20236;-81
2024/04/18 10:50:18;;;;;;;1.97;1.83;;;;;;;13.15;73.50;98795.53;6587070;21;20224;-83
2024/04/18 10:52:47;;;;;;;2.87;1.80;;;;;;;12.88;70.86;98792.81;6629164;21;20766;-83
2024/04/18 10:55:15;;;;;;;2.20;1.70;;;;;;;12.63;73.33;98792.59;6628994;21;20291;-83
2024/04/18 10:57:44;;;;;;;2.47;1.87;;;;;;;13.50;70.92;98798.50;6542458;21;20240;-81
2024/04/18 11:00:15;;;;;;;3.33;1.77;;;;;;;14.03;69.62;98789.41;6586586;21;20232;-82
2024/04/18 11:02:43;;;;;;;2.67;1.70;;;;;;;13.89;67.00;98788.25;6586440;21;20233;-82
2024/04/18 11:05:11;;;;;;;5.07;1.70;;;;;;;13.73;65.06;98800.00;6585216;21;20272;-83
2024/04/18 11:07:49;;;;;;;1.87;1.70;;;;;;;13.63;63.74;98795.34;6547368;21;20231;-82
2024/04/18 11:10:17;;;;;;;2.13;1.40;;;;;;;13.63;66.12;98799.91;6585100;21;20220;-81
2024/04/18 11:12:45;;;;;;;1.40;1.30;;;;;;;13.96;67.55;98796.91;6627973;21;20228;-83
2024/04/18 11:15:17;;;;;;;2.23;1.60;;;;;;;12.87;66.72;98803.84;6543286;21;20230;-82
2024/04/18 11:17:45;;;;;;;1.63;1.30;;;;;;;13.11;65.86;98800.59;6587525;21;20231;-82
2024/04/18 11:20:12;;;;;;;2.77;1.60;;;;;;;13.02;67.11;98790.53;6542659;21;20270;-81
2024/04/18 11:22:41;;;;;;;2.10;1.70;;;;;;;12.85;66.57;98793.34;6582808;21;20927;-81
2024/04/18 11:25:14;;;;;;;1.57;1.47;;;;;;;13.62;66.78;98798.31;6545250;21;20723;-84
2024/04/18 11:28:04;;;;;;;1.50;1.40;;;;;;;13.85;67.74;98797.94;6598750;21;20233;-81
2024/04/18 11:30:31;;;;;;;1.60;1.50;;;;;;;14.12;68.00;98800.47;6584282;21;20329;-81
2024/04/18 11:33:00;;;;;;;1.90;1.50;;;;;;;14.31;67.29;98792.75;6584384;21;20625;-82
2024/04/18 11:35:29;;;;;;;1.90;1.70;;;;;;;14.45;68.02;98800.13;6628934;21;20269;-82
2024/04/18 11:38:09;;;;;;;2.10;1.47;;;;;;;14.81;65.83;98795.63;6549263;21;20261;-81
2024/04/18 11:40:43;;;;;;;1.53;1.43;;;;;;;14.69;64.06;98805.84;6579286;21;20224;-81
2024/04/18 11:43:37;;;;;;;1.80;1.70;;;;;;;14.45;62.50;98794.72;6629820;21;20260;-84
2024/04/18 11:46:05;;;;;;;1.93;1.80;;;;;;;14.57;62.38;98790.97;6541103;21;20322;-83
2024/04/18 11:48:37;;;;;;;2.23;2.03;;;;;;;13.57;66.37;98801.78;6628362;21;20233;-82
2024/04/18 11:51:05;;;;;;;2.20;1.73;;;;;;;14.00;68.35;98803.38;6541435;21;20226;-81
2024/04/18 11:53:32;;;;;;;2.37;1.63;;;;;;;13.60;67.44;98800.44;6586723;21;20552;-81
2024/04/18 11:56:02;;;;;;;1.83;1.73;;;;;;;13.22;69.16;98809.56;6631035;21;20232;-81
2024/04/18 11:58:31;;;;;;;1.90;1.70;;;;;;;13.23;72.00;98816.56;6587033;21;20269;-83
2024/04/18 12:00:58;;;;;;;2.63;1.90;;;;;;;13.50;73.31;98820.03;6542970;21;20255;-83
2024/04/18 12:03:40;;;;;;;2.50;2.30;;;;;;;13.61;73.69;98810.16;6596063;21;20272;-83